sensor_id;sensor_type;location;lat;lon;timestamp;P1;durP1;ratioP1;P2;durP2;ratioP2
30466;SDS011;17258;52.560;13.046;2024-02-21T00:07:51;10.97;;;3.67;;
30466;SDS011;17258;52.560;13.046;2024-02-21T00:17:51;3.80;;;2.53;;
30466;SDS011;17258;52.560;13.046;2024-02-21T00:27:52;7.78;;;3.25;;
30466;SDS011;17258;52.560;13.046;2024-02-21T00:37:53;4.80;;;2.85;;
30466;SDS011;17258;52.560;13.046;2024-02-21T00:47:54;6.93;;;3.53;;
30466;SDS011;17258;52.560;13.046;2024-02-21T00:57:55;5.00;;;2.60;;
30466;SDS011;17258;52.560;13.046;2024-02-21T01:07:55;4.53;;;2.90;;
30466;SDS011;17258;52.560;13.046;2024-02-21T01:17:56;15.23;;;3.50;;
30466;SDS011;17258;52.560;13.046;2024-02-21T01:27:57;9.63;;;3.33;;
30466;SDS011;17258;52.560;13.046;2024-02-21T01:37:57;10.65;;;3.15;;
30466;SDS011;17258;52.560;13.046;2024-02-21T01:47:58;8.57;;;3.27;;
30466;SDS011;17258;52.560;13.046;2024-02-21T01:57:59;7.83;;;3.63;;
30466;SDS011;17258;52.560;13.046;2024-02-21T02:07:59;6.35;;;3.97;;
30466;SDS011;17258;52.560;13.046;2024-02-21T02:18:00;7.97;;;3.63;;
30466;SDS011;17258;52.560;13.046;2024-02-21T02:28:01;5.30;;;3.37;;
30466;SDS011;17258;52.560;13.046;2024-02-21T02:38:04;4.10;;;3.03;;
30466;SDS011;17258;52.560;13.046;2024-02-21T02:48:05;5.25;;;2.92;;
30466;SDS011;17258;52.560;13.046;2024-02-21T02:58:06;10.68;;;3.10;;
30466;SDS011;17258;52.560;13.046;2024-02-21T03:08:08;5.10;;;3.15;;
30466;SDS011;17258;52.560;13.046;2024-02-21T03:18:09;3.80;;;2.87;;
30466;SDS011;17258;52.560;13.046;2024-02-21T03:28:10;10.83;;;3.87;;
30466;SDS011;17258;52.560;13.046;2024-02-21T03:38:10;13.07;;;3.87;;
30466;SDS011;17258;52.560;13.046;2024-02-21T03:48:11;6.40;;;3.63;;
30466;SDS011;17258;52.560;13.046;2024-02-21T03:58:11;9.97;;;3.30;;
30466;SDS011;17258;52.560;13.046;2024-02-21T04:08:12;6.70;;;3.30;;
30466;SDS011;17258;52.560;13.046;2024-02-21T04:18:13;10.60;;;3.67;;
30466;SDS011;17258;52.560;13.046;2024-02-21T04:28:15;4.63;;;3.33;;
30466;SDS011;17258;52.560;13.046;2024-02-21T04:38:15;5.50;;;3.47;;
30466;SDS011;17258;52.560;13.046;2024-02-21T04:48:16;5.07;;;2.70;;
30466;SDS011;17258;52.560;13.046;2024-02-21T04:58:17;8.65;;;3.65;;
30466;SDS011;17258;52.560;13.046;2024-02-21T05:08:17;7.23;;;3.50;;
30466;SDS011;17258;52.560;13.046;2024-02-21T05:18:18;6.07;;;3.07;;
30466;SDS011;17258;52.560;13.046;2024-02-21T05:28:20;6.80;;;4.55;;
30466;SDS011;17258;52.560;13.046;2024-02-21T05:38:21;6.13;;;3.40;;
30466;SDS011;17258;52.560;13.046;2024-02-21T05:48:24;5.75;;;3.60;;
30466;SDS011;17258;52.560;13.046;2024-02-21T05:58:25;8.13;;;4.33;;
30466;SDS011;17258;52.560;13.046;2024-02-21T06:08:26;7.53;;;5.07;;
30466;SDS011;17258;52.560;13.046;2024-02-21T06:18:27;6.47;;;4.50;;
30466;SDS011;17258;52.560;13.046;2024-02-21T06:28:27;6.20;;;4.63;;
30466;SDS011;17258;52.560;13.046;2024-02-21T06:38:28;6.47;;;5.00;;
30466;SDS011;17258;52.560;13.046;2024-02-21T06:48:29;7.88;;;6.40;;
30466;SDS011;17258;52.560;13.046;2024-02-21T06:58:29;11.27;;;5.83;;
30466;SDS011;17258;52.560;13.046;2024-02-21T07:08:30;6.33;;;5.47;;
30466;SDS011;17258;52.560;13.046;2024-02-21T07:18:31;7.15;;;5.53;;
30466;SDS011;17258;52.560;13.046;2024-02-21T07:28:32;10.57;;;5.55;;
30466;SDS011;17258;52.560;13.046;2024-02-21T07:38:33;5.80;;;4.63;;
30466;SDS011;17258;52.560;13.046;2024-02-21T07:48:34;8.05;;;6.15;;
30466;SDS011;17258;52.560;13.046;2024-02-21T07:58:34;6.13;;;5.23;;
30466;SDS011;17258;52.560;13.046;2024-02-21T08:08:35;8.47;;;7.10;;
30466;SDS011;17258;52.560;13.046;2024-02-21T08:18:36;23.23;;;21.13;;
30466;SDS011;17258;52.560;13.046;2024-02-21T08:28:38;24.05;;;21.60;;
30466;SDS011;17258;52.560;13.046;2024-02-21T08:38:39;24.50;;;22.57;;
30466;SDS011;17258;52.560;13.046;2024-02-21T08:48:39;18.83;;;17.17;;
30466;SDS011;17258;52.560;13.046;2024-02-21T08:58:40;22.95;;;21.15;;
30466;SDS011;17258;52.560;13.046;2024-02-21T09:08:41;26.23;;;24.02;;
30466;SDS011;17258;52.560;13.046;2024-02-21T09:18:42;24.80;;;22.65;;
30466;SDS011;17258;52.560;13.046;2024-02-21T09:28:43;24.40;;;22.40;;
30466;SDS011;17258;52.560;13.046;2024-02-21T09:38:45;23.77;;;22.10;;
30466;SDS011;17258;52.560;13.046;2024-02-21T09:59:25;26.65;;;24.30;;
30466;SDS011;17258;52.560;13.046;2024-02-21T10:09:33;24.70;;;22.67;;
30466;SDS011;17258;52.560;13.046;2024-02-21T10:19:34;26.97;;;24.23;;
30466;SDS011;17258;52.560;13.046;2024-02-21T10:29:35;26.33;;;23.85;;
30466;SDS011;17258;52.560;13.046;2024-02-21T10:39:37;24.48;;;22.38;;
30466;SDS011;17258;52.560;13.046;2024-02-21T10:49:40;23.40;;;21.63;;
30466;SDS011;17258;52.560;13.046;2024-02-21T10:59:45;24.20;;;22.10;;
30466;SDS011;17258;52.560;13.046;2024-02-21T11:09:53;25.55;;;23.17;;
30466;SDS011;17258;52.560;13.046;2024-02-21T11:19:57;24.40;;;22.00;;
30466;SDS011;17258;52.560;13.046;2024-02-21T11:29:59;24.55;;;22.02;;
30466;SDS011;17258;52.560;13.046;2024-02-21T11:39:59;22.47;;;20.87;;
30466;SDS011;17258;52.560;13.046;2024-02-21T11:50:01;23.30;;;21.60;;
30466;SDS011;17258;52.560;13.046;2024-02-21T12:00:13;23.55;;;21.75;;
30466;SDS011;17258;52.560;13.046;2024-02-21T12:10:15;23.13;;;21.42;;
30466;SDS011;17258;52.560;13.046;2024-02-21T12:20:16;23.57;;;21.63;;
30466;SDS011;17258;52.560;13.046;2024-02-21T12:30:16;23.95;;;22.02;;
30466;SDS011;17258;52.560;13.046;2024-02-21T12:40:18;22.40;;;20.80;;
30466;SDS011;17258;52.560;13.046;2024-02-21T12:50:18;22.57;;;20.30;;
30466;SDS011;17258;52.560;13.046;2024-02-21T13:00:19;23.05;;;21.17;;
30466;SDS011;17258;52.560;13.046;2024-02-21T13:10:21;24.08;;;21.73;;
30466;SDS011;17258;52.560;13.046;2024-02-21T13:20:21;22.60;;;20.90;;
30466;SDS011;17258;52.560;13.046;2024-02-21T13:30:22;22.73;;;21.10;;
30466;SDS011;17258;52.560;13.046;2024-02-21T13:40:23;21.13;;;19.43;;
30466;SDS011;17258;52.560;13.046;2024-02-21T13:50:30;17.73;;;16.42;;
30466;SDS011;17258;52.560;13.046;2024-02-21T14:00:31;4.75;;;2.53;;
30466;SDS011;17258;52.560;13.046;2024-02-21T14:10:34;3.63;;;2.53;;
30466;SDS011;17258;52.560;13.046;2024-02-21T14:20:36;4.05;;;2.60;;
30466;SDS011;17258;52.560;13.046;2024-02-21T14:30:37;4.10;;;2.47;;
30466;SDS011;17258;52.560;13.046;2024-02-21T14:40:38;2.10;;;1.90;;
30466;SDS011;17258;52.560;13.046;2024-02-21T14:50:38;7.60;;;2.60;;
30466;SDS011;17258;52.560;13.046;2024-02-21T15:00:39;3.28;;;2.17;;
30466;SDS011;17258;52.560;13.046;2024-02-21T15:10:41;3.00;;;2.42;;
30466;SDS011;17258;52.560;13.046;2024-02-21T15:20:42;4.43;;;2.53;;
30466;SDS011;17258;52.560;13.046;2024-02-21T15:30:43;3.08;;;2.55;;
30466;SDS011;17258;52.560;13.046;2024-02-21T15:40:43;2.08;;;1.80;;
30466;SDS011;17258;52.560;13.046;2024-02-21T15:50:44;2.33;;;1.65;;
30466;SDS011;17258;52.560;13.046;2024-02-21T16:00:45;1.92;;;1.77;;
30466;SDS011;17258;52.560;13.046;2024-02-21T16:10:46;2.93;;;1.70;;
30466;SDS011;17258;52.560;13.046;2024-02-21T16:20:47;7.53;;;2.08;;
30466;SDS011;17258;52.560;13.046;2024-02-21T16:30:47;3.25;;;1.60;;
30466;SDS011;17258;52.560;13.046;2024-02-21T16:40:48;4.53;;;2.03;;
30466;SDS011;17258;52.560;13.046;2024-02-21T16:50:50;3.55;;;1.83;;
30466;SDS011;17258;52.560;13.046;2024-02-21T17:00:50;3.72;;;2.13;;
30466;SDS011;17258;52.560;13.046;2024-02-21T17:10:51;1.90;;;1.70;;
30466;SDS011;17258;52.560;13.046;2024-02-21T17:20:52;3.28;;;2.13;;
30466;SDS011;17258;52.560;13.046;2024-02-21T17:30:52;3.20;;;2.03;;
30466;SDS011;17258;52.560;13.046;2024-02-21T17:40:53;6.83;;;2.30;;
30466;SDS011;17258;52.560;13.046;2024-02-21T17:50:54;3.63;;;2.60;;
30466;SDS011;17258;52.560;13.046;2024-02-21T18:00:55;2.67;;;2.05;;
30466;SDS011;17258;52.560;13.046;2024-02-21T18:10:59;3.22;;;2.42;;
30466;SDS011;17258;52.560;13.046;2024-02-21T18:21:01;5.18;;;3.97;;
30466;SDS011;17258;52.560;13.046;2024-02-21T18:31:02;4.95;;;2.92;;
30466;SDS011;17258;52.560;13.046;2024-02-21T18:41:05;2.70;;;2.17;;
30466;SDS011;17258;52.560;13.046;2024-02-21T18:51:08;2.08;;;1.88;;
30466;SDS011;17258;52.560;13.046;2024-02-21T19:01:08;2.93;;;2.63;;
30466;SDS011;17258;52.560;13.046;2024-02-21T19:11:09;3.07;;;2.77;;
30466;SDS011;17258;52.560;13.046;2024-02-21T19:21:10;4.00;;;2.33;;
30466;SDS011;17258;52.560;13.046;2024-02-21T19:31:11;2.15;;;1.98;;
30466;SDS011;17258;52.560;13.046;2024-02-21T19:41:12;3.17;;;2.80;;
30466;SDS011;17258;52.560;13.046;2024-02-21T19:51:13;8.10;;;5.65;;
30466;SDS011;17258;52.560;13.046;2024-02-21T20:01:15;7.28;;;2.80;;
30466;SDS011;17258;52.560;13.046;2024-02-21T20:11:18;7.10;;;2.42;;
30466;SDS011;17258;52.560;13.046;2024-02-21T20:21:19;2.92;;;2.35;;
30466;SDS011;17258;52.560;13.046;2024-02-21T20:31:20;4.65;;;2.40;;
30466;SDS011;17258;52.560;13.046;2024-02-21T20:41:25;2.08;;;1.85;;
30466;SDS011;17258;52.560;13.046;2024-02-21T20:51:26;2.10;;;1.90;;
30466;SDS011;17258;52.560;13.046;2024-02-21T21:01:26;2.53;;;1.97;;
30466;SDS011;17258;52.560;13.046;2024-02-21T21:11:27;3.27;;;2.00;;
30466;SDS011;17258;52.560;13.046;2024-02-21T21:21:29;3.45;;;2.15;;
30466;SDS011;17258;52.560;13.046;2024-02-21T21:31:31;5.97;;;2.13;;
30466;SDS011;17258;52.560;13.046;2024-02-21T21:41:32;4.13;;;2.13;;
30466;SDS011;17258;52.560;13.046;2024-02-21T21:51:34;5.47;;;1.77;;
30466;SDS011;17258;52.560;13.046;2024-02-21T22:01:35;1.73;;;1.40;;
30466;SDS011;17258;52.560;13.046;2024-02-21T22:11:35;2.50;;;1.57;;
30466;SDS011;17258;52.560;13.046;2024-02-21T22:21:36;1.63;;;1.50;;
30466;SDS011;17258;52.560;13.046;2024-02-21T22:31:37;1.73;;;1.63;;
30466;SDS011;17258;52.560;13.046;2024-02-21T22:41:39;2.47;;;1.88;;
30466;SDS011;17258;52.560;13.046;2024-02-21T22:51:44;2.22;;;1.63;;
30466;SDS011;17258;52.560;13.046;2024-02-21T23:01:45;2.20;;;1.60;;
30466;SDS011;17258;52.560;13.046;2024-02-21T23:11:46;2.17;;;1.45;;
30466;SDS011;17258;52.560;13.046;2024-02-21T23:21:46;2.83;;;1.87;;
30466;SDS011;17258;52.560;13.046;2024-02-21T23:31:47;2.63;;;1.50;;
30466;SDS011;17258;52.560;13.046;2024-02-21T23:41:50;2.78;;;1.80;;
30466;SDS011;17258;52.560;13.046;2024-02-21T23:51:51;2.43;;;1.33;;
